Terminal Aerodrome Forecast
Issued by NWS

Home | Current Version | Previous Version | Graphics & Text | Print | Product List | Glossary On
Versions: 1 2 3 4 5 6 7 8 9 10 11 12 13 14 15 16 17 18
000
FTUS43 KMPX 300500
TAFAXN
TAF
KAXN 300520Z 3006/3106 34005KT P6SM SCT025 OVC035
     FM300800 35007KT 6SM BR SCT005 OVC015
     FM301000 35007KT 6SM BR OVC005
      TEMPO 3010/3014 4SM BR
     FM301600 36006KT P6SM BKN010
     FM301800 36004KT P6SM BKN020
     FM302100 VRB03KT P6SM FEW020=

USA.gov is the U.S. government's official web portal to all federal, state and local government web resources and services.